Terminal Aerodrome Forecast
Issued by NWS

Home | Current Version | Previous Version | Graphics & Text | Print | Product List | Glossary On
Versions: 1 2 3 4 5 6 7 8 9 10 11 12 13 14 15
176
FTUS43 KICT 210819 AAA
TAFHUT
TAF AMD
KHUT 210819Z 2108/2206 18022G29KT P6SM SCT020 BKN040
      TEMPO 2108/2112 BKN020
     FM211200 18019G27KT P6SM OVC010
     FM211900 20017G24KT P6SM SHRA VCTS BKN020CB
     FM212200 32015G23KT P6SM VCTS BKN050CB
     FM220000 35010KT P6SM BKN100=

USA.gov is the U.S. government's official web portal to all federal, state and local government web resources and services.